createdAt,value
2022-12-06T00:01:48.681Z,1.97
2022-12-06T00:04:15.835Z,1.96
2022-12-06T00:06:44.100Z,1.95
2022-12-06T00:09:27.590Z,1.97
2022-12-06T00:11:54.148Z,1.96
2022-12-06T00:14:20.633Z,1.96
2022-12-06T00:16:47.602Z,1.97
2022-12-06T00:19:15.496Z,1.96
2022-12-06T00:21:41.861Z,1.97
2022-12-06T00:24:10.869Z,1.93
2022-12-06T00:26:38.461Z,1.94
2022-12-06T00:29:05.097Z,1.99
2022-12-06T00:31:31.828Z,1.97
2022-12-06T00:33:58.355Z,1.94
2022-12-06T00:36:26.897Z,1.89
2022-12-06T00:38:53.288Z,1.96
2022-12-06T00:41:21.599Z,1.97
2022-12-06T00:43:48.256Z,1.97
2022-12-06T00:46:17.325Z,1.91
2022-12-06T00:48:44.659Z,1.91
2022-12-06T00:51:11.605Z,1.92
2022-12-06T00:53:37.941Z,1.92
2022-12-06T00:56:04.564Z,1.92
2022-12-06T00:58:30.924Z,1.98
2022-12-06T01:01:10.214Z,1.96
2022-12-06T01:03:37.012Z,1.89
2022-12-06T01:06:08.033Z,1.93
2022-12-06T01:08:34.500Z,1.94
2022-12-06T01:11:00.978Z,1.96
2022-12-06T01:13:27.517Z,1.98
2022-12-06T01:15:54.243Z,1.93
2022-12-06T01:18:21.249Z,1.89
2022-12-06T01:20:47.628Z,1.87
2022-12-06T01:23:14.654Z,1.88
2022-12-06T01:25:49.813Z,1.83
2022-12-06T01:28:16.172Z,1.87
2022-12-06T01:30:42.544Z,1.87
2022-12-06T01:33:08.938Z,1.90
2022-12-06T01:35:39.522Z,1.86
2022-12-06T01:38:06.296Z,1.82
2022-12-06T01:40:40.636Z,1.74
2022-12-06T01:43:32.855Z,1.80
2022-12-06T01:46:01.557Z,1.81
2022-12-06T01:48:28.031Z,1.86
2022-12-06T01:50:55.519Z,1.90
2022-12-06T01:53:25.695Z,1.89
2022-12-06T01:55:52.727Z,1.90
2022-12-06T01:58:21.640Z,1.81
2022-12-06T02:00:48.008Z,1.85
2022-12-06T02:03:19.299Z,1.81
2022-12-06T02:05:45.768Z,1.80
2022-12-06T02:08:13.128Z,1.83
2022-12-06T02:10:39.560Z,1.77
2022-12-06T02:13:05.939Z,1.80
2022-12-06T02:15:40.527Z,1.82
2022-12-06T02:18:12.110Z,1.80
2022-12-06T02:20:43.736Z,1.83
2022-12-06T02:23:31.916Z,1.87
2022-12-06T02:26:01.309Z,1.91
2022-12-06T02:28:27.633Z,1.90
2022-12-06T02:31:16.941Z,1.86
2022-12-06T02:33:52.220Z,1.86
2022-12-06T02:36:40.438Z,1.87
2022-12-06T02:39:23.309Z,1.89
2022-12-06T02:42:05.994Z,1.93
2022-12-06T02:44:35.887Z,1.92
2022-12-06T02:47:02.409Z,1.84
2022-12-06T02:49:28.744Z,1.87
2022-12-06T02:51:55.197Z,1.87
2022-12-06T02:54:21.543Z,1.90
2022-12-06T02:56:48.000Z,1.89
2022-12-06T02:59:14.409Z,1.91
2022-12-06T03:01:43.753Z,1.91
2022-12-06T03:04:46.477Z,1.90
2022-12-06T03:07:18.677Z,1.90
2022-12-06T03:09:47.754Z,1.83
2022-12-06T03:12:31.918Z,1.87
2022-12-06T03:15:34.144Z,1.91
2022-12-06T03:18:09.167Z,1.90
2022-12-06T03:20:43.150Z,1.90
2022-12-06T03:23:15.146Z,1.92
2022-12-06T03:25:41.562Z,1.94
2022-12-06T03:28:08.152Z,1.99
2022-12-06T03:30:34.599Z,2.00
2022-12-06T03:33:00.981Z,1.98
2022-12-06T03:35:29.400Z,1.96
2022-12-06T03:37:57.717Z,1.96
2022-12-06T03:40:32.313Z,1.92
2022-12-06T03:42:58.707Z,1.96
2022-12-06T03:45:28.376Z,1.92
2022-12-06T03:48:14.033Z,1.90
2022-12-06T03:50:43.791Z,1.93
2022-12-06T03:53:10.143Z,1.90
2022-12-06T03:55:36.545Z,1.91
2022-12-06T03:58:02.924Z,1.87
2022-12-06T04:00:29.560Z,1.91
2022-12-06T04:02:55.939Z,1.92
2022-12-06T04:05:22.309Z,1.89
2022-12-06T04:07:48.762Z,1.86
2022-12-06T04:10:15.139Z,1.83
2022-12-06T04:13:00.090Z,1.82
2022-12-06T04:15:27.763Z,1.84
2022-12-06T04:18:12.806Z,1.80
2022-12-06T04:21:00.941Z,1.73
2022-12-06T04:23:27.477Z,1.77
2022-12-06T04:25:54.085Z,1.72
2022-12-06T04:28:39.224Z,1.73
2022-12-06T04:31:24.247Z,1.67
2022-12-06T04:34:09.841Z,1.77
2022-12-06T04:36:55.959Z,1.75
2022-12-06T04:39:22.343Z,1.77
2022-12-06T04:42:08.092Z,1.84
2022-12-06T04:44:34.436Z,1.79
2022-12-06T04:47:01.079Z,1.75
2022-12-06T04:49:27.588Z,1.82
2022-12-06T04:51:54.619Z,1.85
2022-12-06T04:54:21.618Z,1.83
2022-12-06T04:56:47.964Z,1.82
2022-12-06T04:59:14.395Z,1.76
2022-12-06T05:01:40.739Z,1.84
2022-12-06T05:04:07.203Z,1.77
2022-12-06T05:06:33.655Z,1.72
2022-12-06T05:09:00.018Z,1.77
2022-12-06T05:11:26.432Z,1.79
2022-12-06T05:13:52.798Z,1.76
2022-12-06T05:16:19.302Z,1.66
2022-12-06T05:18:45.864Z,1.68
2022-12-06T05:21:17.248Z,1.64
2022-12-06T05:23:43.722Z,1.66
2022-12-06T05:26:14.541Z,1.65
2022-12-06T05:28:41.203Z,1.63
2022-12-06T05:31:07.723Z,1.70
2022-12-06T05:33:34.177Z,1.70
2022-12-06T05:36:05.548Z,1.71
2022-12-06T05:38:33.025Z,1.71
2022-12-06T05:40:59.398Z,1.68
2022-12-06T05:43:25.756Z,1.59
2022-12-06T05:45:53.270Z,1.59
2022-12-06T05:48:19.646Z,1.64
2022-12-06T05:50:46.805Z,1.62
2022-12-06T05:53:13.206Z,1.58
2022-12-06T05:55:39.587Z,1.57
2022-12-06T05:58:05.936Z,1.55
2022-12-06T06:00:32.295Z,1.56
2022-12-06T06:02:58.722Z,1.62
2022-12-06T06:05:25.154Z,1.62
2022-12-06T06:07:51.555Z,1.58
2022-12-06T06:10:18.068Z,1.56
2022-12-06T06:12:47.627Z,1.57
2022-12-06T06:15:14.204Z,1.54
2022-12-06T06:17:40.843Z,1.52
2022-12-06T06:20:07.824Z,1.51
2022-12-06T06:22:35.002Z,1.60
2022-12-06T06:25:01.642Z,1.54
2022-12-06T06:27:37.681Z,1.57
2022-12-06T06:30:08.636Z,1.58
2022-12-06T06:32:35.363Z,1.60
2022-12-06T06:35:01.831Z,1.50
2022-12-06T06:37:28.187Z,1.47
2022-12-06T06:39:54.628Z,1.55
2022-12-06T06:42:21.020Z,1.55
2022-12-06T06:44:47.449Z,1.60
2022-12-06T06:47:13.789Z,1.58
2022-12-06T06:49:40.849Z,1.62
2022-12-06T06:52:07.294Z,1.58
2022-12-06T06:54:33.667Z,1.59
2022-12-06T06:57:00.217Z,1.63
2022-12-06T06:59:26.596Z,1.65
2022-12-06T07:01:53.003Z,1.66
2022-12-06T07:04:19.459Z,1.70
2022-12-06T07:06:45.868Z,1.74
2022-12-06T07:09:12.232Z,1.75
2022-12-06T07:11:38.654Z,1.77
2022-12-06T07:14:05.133Z,1.78
2022-12-06T07:16:31.544Z,1.76
2022-12-06T07:18:57.887Z,1.78
2022-12-06T07:21:24.321Z,1.80
2022-12-06T07:23:51.005Z,1.80
2022-12-06T07:26:23.776Z,1.83
2022-12-06T07:28:50.668Z,1.86
2022-12-06T07:31:19.326Z,1.88
2022-12-06T07:33:45.839Z,1.92
2022-12-06T07:36:13.831Z,1.94
2022-12-06T07:38:41.991Z,1.97
2022-12-06T07:41:30.772Z,1.96
2022-12-06T07:44:16.309Z,1.98
2022-12-06T07:46:42.966Z,1.98
2022-12-06T07:49:09.579Z,2.03
2022-12-06T07:51:35.931Z,2.06
2022-12-06T07:54:02.296Z,2.09
2022-12-06T07:56:28.668Z,2.11
2022-12-06T07:58:55.042Z,2.09
2022-12-06T08:01:23.379Z,2.07
2022-12-06T08:03:50.248Z,2.14
2022-12-06T08:06:16.797Z,2.16
2022-12-06T08:08:43.219Z,2.17
2022-12-06T08:11:09.665Z,2.16
2022-12-06T08:13:36.518Z,2.17
2022-12-06T08:16:07.377Z,2.19
2022-12-06T08:18:33.824Z,2.19
2022-12-06T08:21:00.242Z,2.20
2022-12-06T08:23:32.273Z,2.17
2022-12-06T08:26:07.710Z,2.18
2022-12-06T08:28:34.512Z,2.22
2022-12-06T08:31:06.228Z,2.24
2022-12-06T08:33:32.994Z,2.27
2022-12-06T08:35:59.356Z,2.30
2022-12-06T08:38:25.751Z,2.33
2022-12-06T08:40:52.112Z,2.35
2022-12-06T08:43:18.509Z,2.33
2022-12-06T08:45:44.884Z,2.33
2022-12-06T08:48:11.220Z,2.39
2022-12-06T08:50:38.701Z,2.42
2022-12-06T08:53:05.068Z,2.44
2022-12-06T08:55:31.428Z,2.39
2022-12-06T08:57:57.786Z,2.43
2022-12-06T09:00:24.238Z,2.47
2022-12-06T09:02:50.601Z,2.51
2022-12-06T09:05:17.030Z,2.50
2022-12-06T09:07:43.420Z,2.48
2022-12-06T09:10:10.224Z,2.55
2022-12-06T09:12:36.580Z,2.57
2022-12-06T09:15:03.361Z,2.60
2022-12-06T09:17:29.756Z,2.61
2022-12-06T09:19:58.549Z,2.64
2022-12-06T09:22:28.524Z,2.67
2022-12-06T09:24:54.865Z,2.64
2022-12-06T09:27:21.258Z,2.63
2022-12-06T09:29:47.600Z,2.63
2022-12-06T09:32:13.952Z,2.61
2022-12-06T09:34:40.326Z,2.61
2022-12-06T09:37:09.057Z,2.60
2022-12-06T09:39:46.238Z,2.64
2022-12-06T09:42:46.565Z,2.65
2022-12-06T09:45:19.396Z,2.71
2022-12-06T09:48:10.767Z,2.70
2022-12-06T09:50:46.453Z,2.70
2022-12-06T09:53:28.308Z,2.74
2022-12-06T09:56:06.786Z,2.79
2022-12-06T09:58:54.453Z,2.77
2022-12-06T10:01:27.409Z,2.78
2022-12-06T10:03:57.037Z,2.83
2022-12-06T10:06:23.517Z,2.87
2022-12-06T10:09:08.650Z,2.90
2022-12-06T10:11:48.437Z,2.92
2022-12-06T10:14:39.212Z,2.92
2022-12-06T10:17:11.624Z,2.97
2022-12-06T10:19:53.495Z,3.00
2022-12-06T10:22:29.537Z,3.03
2022-12-06T10:24:55.902Z,3.07
2022-12-06T10:27:33.776Z,3.10
2022-12-06T10:30:06.157Z,3.12
2022-12-06T10:32:55.393Z,3.13
2022-12-06T10:35:24.746Z,3.15
2022-12-06T10:38:09.341Z,3.20
2022-12-06T10:40:44.365Z,3.22
2022-12-06T10:43:32.183Z,3.24
2022-12-06T10:46:24.744Z,3.28
2022-12-06T10:49:36.013Z,3.32
2022-12-06T10:52:06.333Z,3.31
2022-12-06T10:54:32.700Z,3.34
2022-12-06T10:57:01.521Z,3.34
2022-12-06T10:59:37.293Z,3.37
2022-12-06T11:02:44.050Z,3.38
2022-12-06T11:05:16.980Z,3.41
2022-12-06T11:07:43.941Z,3.41
2022-12-06T11:10:21.809Z,3.42
2022-12-06T11:12:48.878Z,3.44
2022-12-06T11:15:19.508Z,3.48
2022-12-06T11:17:48.860Z,3.51
2022-12-06T11:20:27.515Z,3.51
2022-12-06T11:23:06.632Z,3.50
2022-12-06T11:25:43.745Z,3.53
2022-12-06T11:28:41.717Z,3.52
2022-12-06T11:31:22.463Z,3.57
2022-12-06T11:33:48.846Z,3.57
2022-12-06T11:36:15.311Z,3.58
2022-12-06T11:38:41.929Z,3.61
2022-12-06T11:41:10.817Z,3.61
2022-12-06T11:43:37.234Z,3.54
2022-12-06T11:46:04.580Z,3.58
2022-12-06T11:48:32.391Z,3.58
2022-12-06T11:50:58.740Z,3.61
2022-12-06T11:53:28.317Z,3.63
2022-12-06T11:55:56.874Z,3.63
2022-12-06T11:58:27.002Z,3.65
2022-12-06T12:01:10.013Z,3.66
2022-12-06T12:03:38.168Z,3.66
2022-12-06T12:06:26.625Z,3.67
2022-12-06T12:08:56.075Z,3.68
2022-12-06T12:11:24.104Z,3.72
2022-12-06T12:13:59.633Z,3.73
2022-12-06T12:16:43.719Z,3.73
2022-12-06T12:19:34.569Z,3.73
2022-12-06T12:22:01.536Z,3.73
2022-12-06T12:25:18.553Z,3.75
2022-12-06T12:27:40.415Z,3.79
2022-12-06T12:30:16.037Z,3.77
2022-12-06T12:32:43.225Z,3.74
2022-12-06T12:35:22.054Z,3.74
2022-12-06T12:37:49.000Z,3.76
2022-12-06T12:40:26.634Z,3.77
2022-12-06T12:43:00.230Z,3.78
2022-12-06T12:45:27.659Z,3.77
2022-12-06T12:48:04.217Z,3.74
2022-12-06T12:50:31.636Z,3.76
2022-12-06T12:52:58.307Z,3.78
2022-12-06T12:55:26.525Z,3.77
2022-12-06T12:57:54.597Z,3.79
2022-12-06T13:00:28.190Z,3.81
2022-12-06T13:02:57.753Z,3.83
2022-12-06T13:05:35.263Z,3.83
2022-12-06T13:08:11.182Z,3.84
2022-12-06T13:10:38.596Z,3.83
2022-12-06T13:13:13.997Z,3.82
2022-12-06T13:15:50.435Z,3.77
2022-12-06T13:18:31.240Z,3.77
2022-12-06T13:20:59.057Z,3.73
2022-12-06T13:23:27.670Z,3.76
2022-12-06T13:26:20.317Z,3.78
2022-12-06T13:28:48.640Z,3.74
2022-12-06T13:31:17.201Z,3.73
2022-12-06T13:33:52.347Z,3.76
2022-12-06T13:36:18.720Z,3.77
2022-12-06T13:38:45.124Z,3.74
2022-12-06T13:41:36.445Z,3.77
2022-12-06T13:44:02.814Z,3.79
2022-12-06T13:46:29.669Z,3.75
2022-12-06T13:49:01.036Z,3.77
2022-12-06T13:51:37.915Z,3.79
2022-12-06T13:54:06.898Z,3.79
2022-12-06T13:56:33.271Z,3.78
2022-12-06T13:59:19.900Z,3.77
2022-12-06T14:01:50.030Z,3.79
2022-12-06T14:07:03.728Z,3.76
2022-12-06T14:09:50.672Z,3.77
2022-12-06T14:12:22.161Z,3.77
2022-12-06T14:14:56.409Z,3.79
2022-12-06T14:17:59.249Z,3.80
2022-12-06T14:20:28.917Z,3.75
2022-12-06T14:22:55.276Z,3.77
2022-12-06T14:25:28.283Z,3.76
2022-12-06T14:28:05.705Z,3.74
2022-12-06T14:30:32.160Z,3.76
2022-12-06T14:32:59.269Z,3.78
2022-12-06T14:35:36.051Z,3.80
2022-12-06T14:38:24.486Z,3.78
2022-12-06T14:41:09.501Z,3.75
2022-12-06T14:43:35.863Z,3.72
2022-12-06T14:46:05.000Z,3.69
2022-12-06T14:48:51.975Z,3.71
2022-12-06T14:51:25.970Z,3.70
2022-12-06T14:53:52.539Z,3.67
2022-12-06T14:56:36.459Z,3.65
2022-12-06T14:59:09.423Z,3.67
2022-12-06T15:01:36.397Z,3.64
2022-12-06T15:04:07.305Z,3.58
2022-12-06T15:06:34.718Z,3.59
2022-12-06T15:09:01.079Z,3.57
2022-12-06T15:11:59.415Z,3.56
2022-12-06T15:14:27.687Z,3.55
2022-12-06T15:17:09.345Z,3.54
2022-12-06T15:19:37.605Z,3.56
2022-12-06T15:22:04.493Z,3.52
2022-12-06T15:24:31.033Z,3.53
2022-12-06T15:26:57.422Z,3.49
2022-12-06T15:29:24.271Z,3.49
2022-12-06T15:31:53.167Z,3.50
2022-12-06T15:34:31.022Z,3.52
2022-12-06T15:37:22.292Z,3.48
2022-12-06T15:39:44.679Z,3.49
2022-12-06T15:42:19.392Z,3.49
2022-12-06T15:44:49.411Z,3.46
2022-12-06T15:47:16.688Z,3.47
2022-12-06T15:49:43.128Z,3.47
2022-12-06T15:52:17.248Z,3.44
2022-12-06T15:54:43.678Z,3.45
2022-12-06T15:57:10.360Z,3.43
2022-12-06T15:59:36.848Z,3.41
2022-12-06T16:02:03.318Z,3.41
2022-12-06T16:04:34.900Z,3.42
2022-12-06T16:07:01.304Z,3.43
2022-12-06T16:09:27.701Z,3.44
2022-12-06T16:11:54.141Z,3.41
2022-12-06T16:14:20.941Z,3.41
2022-12-06T16:16:47.373Z,3.44
2022-12-06T16:19:13.753Z,3.41
2022-12-06T16:21:56.318Z,3.40
2022-12-06T16:24:22.818Z,3.42
2022-12-06T16:26:49.224Z,3.43
2022-12-06T16:29:25.545Z,3.37
2022-12-06T16:31:52.864Z,3.38
2022-12-06T16:34:19.549Z,3.38
2022-12-06T16:36:55.065Z,3.38
2022-12-06T16:39:21.421Z,3.39
2022-12-06T16:41:48.416Z,3.38
2022-12-06T16:44:14.799Z,3.41
2022-12-06T16:46:42.507Z,3.34
2022-12-06T16:52:05.475Z,3.39
2022-12-06T16:54:31.839Z,3.37
2022-12-06T16:56:58.187Z,3.37
2022-12-06T16:59:24.555Z,3.33
2022-12-06T17:01:52.318Z,3.30
2022-12-06T17:04:18.927Z,3.30
2022-12-06T17:06:45.416Z,3.31
2022-12-06T17:09:11.871Z,3.34
2022-12-06T17:11:56.692Z,3.37
2022-12-06T17:14:25.135Z,3.34
2022-12-06T17:16:51.727Z,3.29
2022-12-06T17:19:20.239Z,3.33
2022-12-06T17:21:47.386Z,3.30
2022-12-06T17:24:14.535Z,3.29
2022-12-06T17:26:41.006Z,3.30
2022-12-06T17:29:07.528Z,3.31
2022-12-06T17:31:34.028Z,3.30
2022-12-06T17:34:00.454Z,3.30
2022-12-06T17:36:27.165Z,3.31
2022-12-06T17:38:54.312Z,3.32
2022-12-06T17:41:41.262Z,3.30
2022-12-06T17:44:07.838Z,3.27
2022-12-06T17:46:34.391Z,3.29
2022-12-06T17:49:00.754Z,3.29
2022-12-06T17:51:27.371Z,3.30
2022-12-06T17:53:53.791Z,3.27
2022-12-06T17:56:23.430Z,3.24
2022-12-06T17:58:50.319Z,3.23
2022-12-06T18:01:16.847Z,3.28
2022-12-06T18:03:43.387Z,3.28
2022-12-06T18:06:10.605Z,3.25
2022-12-06T18:08:37.125Z,3.26
2022-12-06T18:11:03.561Z,3.24
2022-12-06T18:13:29.961Z,3.22
2022-12-06T18:15:56.359Z,3.21
2022-12-06T18:18:22.745Z,3.19
2022-12-06T18:20:49.099Z,3.20
2022-12-06T18:23:15.517Z,3.17
2022-12-06T18:25:41.884Z,3.18
2022-12-06T18:28:08.313Z,3.20
2022-12-06T18:30:34.791Z,3.18
2022-12-06T18:33:04.099Z,3.17
2022-12-06T18:35:30.536Z,3.17
2022-12-06T18:37:56.931Z,3.17
2022-12-06T18:40:23.350Z,3.16
2022-12-06T18:42:50.940Z,3.10
2022-12-06T18:45:17.357Z,3.14
2022-12-06T18:47:43.707Z,3.14
2022-12-06T18:50:10.564Z,3.14
2022-12-06T18:52:37.026Z,3.13
2022-12-06T18:55:03.932Z,3.18
2022-12-06T18:57:32.151Z,3.14
2022-12-06T18:59:58.995Z,3.15
2022-12-06T19:02:26.156Z,3.15
2022-12-06T19:04:52.581Z,3.18
2022-12-06T19:07:23.541Z,3.15
2022-12-06T19:09:51.434Z,3.16
2022-12-06T19:12:17.776Z,3.15
2022-12-06T19:14:44.128Z,3.16
2022-12-06T19:17:11.046Z,3.15
2022-12-06T19:19:37.466Z,3.17
2022-12-06T19:22:04.259Z,3.14
2022-12-06T19:24:30.688Z,3.14
2022-12-06T19:26:59.698Z,3.16
2022-12-06T19:29:26.908Z,3.16
2022-12-06T19:31:53.326Z,3.14
2022-12-06T19:34:24.624Z,3.16
2022-12-06T19:36:51.844Z,3.18
2022-12-06T19:39:18.352Z,3.10
2022-12-06T19:42:03.555Z,3.12
2022-12-06T19:44:30.156Z,3.11
2022-12-06T19:46:56.796Z,3.09
2022-12-06T19:49:24.206Z,3.13
2022-12-06T19:51:50.793Z,3.13
2022-12-06T19:54:22.359Z,3.09
2022-12-06T19:56:53.298Z,3.09
2022-12-06T19:59:23.873Z,3.08
2022-12-06T20:01:50.459Z,3.05
2022-12-06T20:04:27.875Z,3.04
2022-12-06T20:06:54.687Z,2.99
2022-12-06T20:09:22.666Z,2.97
2022-12-06T20:12:01.626Z,2.97
2022-12-06T20:14:43.908Z,2.90
2022-12-06T20:17:15.221Z,2.90
2022-12-06T20:19:46.169Z,2.89
2022-12-06T20:22:13.676Z,2.88
2022-12-06T20:24:40.183Z,2.90
2022-12-06T20:27:06.897Z,2.88
2022-12-06T20:29:33.282Z,2.88
2022-12-06T20:32:00.002Z,2.86
2022-12-06T20:34:29.308Z,2.82
2022-12-06T20:36:56.311Z,2.81
2022-12-06T20:39:24.603Z,2.77
2022-12-06T20:41:51.039Z,2.77
2022-12-06T20:44:17.778Z,2.73
2022-12-06T20:46:44.399Z,2.68
2022-12-06T20:49:10.852Z,2.65
2022-12-06T20:51:37.326Z,2.57
2022-12-06T20:54:05.049Z,2.52
2022-12-06T20:56:33.531Z,2.49
2022-12-06T20:59:00.637Z,2.46
2022-12-06T21:01:30.502Z,2.43
2022-12-06T21:03:57.079Z,2.39
2022-12-06T21:06:24.148Z,2.36
2022-12-06T21:08:50.753Z,2.35
2022-12-06T21:11:24.966Z,2.35
2022-12-06T21:13:53.413Z,2.39
2022-12-06T21:16:26.097Z,2.45
2022-12-06T21:19:15.774Z,2.44
2022-12-06T21:21:45.020Z,2.45
2022-12-06T21:24:14.595Z,2.44
2022-12-06T21:26:41.149Z,2.43
2022-12-06T21:29:07.509Z,2.43
2022-12-06T21:31:35.429Z,2.44
2022-12-06T21:34:02.152Z,2.46
2022-12-06T21:36:28.622Z,2.50
2022-12-06T21:38:54.976Z,2.52
2022-12-06T21:41:21.499Z,2.55
2022-12-06T21:43:47.945Z,2.56
2022-12-06T21:46:19.455Z,2.59
2022-12-06T21:48:50.185Z,2.58
2022-12-06T21:51:16.829Z,2.56
2022-12-06T21:53:43.224Z,2.52
2022-12-06T21:56:11.781Z,2.41
2022-12-06T21:58:38.211Z,2.41
2022-12-06T22:01:08.733Z,2.38
2022-12-06T22:03:35.364Z,2.33
2022-12-06T22:06:06.390Z,2.39
2022-12-06T22:08:32.930Z,2.40
2022-12-06T22:10:59.345Z,2.42
2022-12-06T22:13:25.717Z,2.43
2022-12-06T22:15:52.178Z,2.32
2022-12-06T22:18:18.611Z,2.38
2022-12-06T22:20:45.011Z,2.34
2022-12-06T22:23:11.374Z,2.34
2022-12-06T22:25:40.931Z,2.28
2022-12-06T22:28:07.302Z,2.34
2022-12-06T22:30:33.642Z,2.34
2022-12-06T22:32:59.996Z,2.34
2022-12-06T22:35:26.390Z,2.37
2022-12-06T22:37:52.750Z,2.34
2022-12-06T22:40:19.073Z,2.36
2022-12-06T22:42:45.452Z,2.35
2022-12-06T22:45:11.795Z,2.33
2022-12-06T22:47:38.157Z,2.35
2022-12-06T22:50:05.094Z,2.35
2022-12-06T22:52:31.440Z,2.32
2022-12-06T22:54:57.842Z,2.36
2022-12-06T22:57:24.283Z,2.33
2022-12-06T22:59:50.637Z,2.37
2022-12-06T23:02:17.069Z,2.41
2022-12-06T23:04:43.511Z,2.41
2022-12-06T23:07:09.879Z,2.38
2022-12-06T23:09:36.331Z,2.32
2022-12-06T23:12:02.807Z,2.33
2022-12-06T23:14:29.194Z,2.33
2022-12-06T23:16:55.539Z,2.37
2022-12-06T23:19:21.923Z,2.39
2022-12-06T23:21:48.326Z,2.41
2022-12-06T23:24:14.689Z,2.40
2022-12-06T23:26:43.309Z,2.43
2022-12-06T23:29:09.756Z,2.44
2022-12-06T23:31:38.210Z,2.43
2022-12-06T23:34:20.709Z,2.45
2022-12-06T23:36:47.156Z,2.42
2022-12-06T23:39:13.705Z,2.45
2022-12-06T23:41:40.251Z,2.46
2022-12-06T23:44:06.848Z,2.48
2022-12-06T23:46:37.249Z,2.48
2022-12-06T23:49:04.221Z,2.52
2022-12-06T23:51:35.868Z,2.52
2022-12-06T23:54:03.212Z,2.53
2022-12-06T23:56:31.672Z,2.55
2022-12-06T23:58:58.265Z,2.55
